sensor_id;sensor_type;location;lat;lon;timestamp;P1;durP1;ratioP1;P2;durP2;ratioP2
17251;SDS011;8742;51.716;8.790;2023-02-01T00:00:25;24.00;;;5.07;;
17251;SDS011;8742;51.716;8.790;2023-02-01T00:02:52;17.60;;;5.70;;
17251;SDS011;8742;51.716;8.790;2023-02-01T00:05:19;21.37;;;5.40;;
17251;SDS011;8742;51.716;8.790;2023-02-01T00:07:46;25.40;;;5.67;;
17251;SDS011;8742;51.716;8.790;2023-02-01T00:10:15;17.57;;;5.10;;
17251;SDS011;8742;51.716;8.790;2023-02-01T00:12:43;26.23;;;5.80;;
17251;SDS011;8742;51.716;8.790;2023-02-01T00:15:10;24.70;;;5.67;;
17251;SDS011;8742;51.716;8.790;2023-02-01T00:17:37;32.17;;;5.67;;
17251;SDS011;8742;51.716;8.790;2023-02-01T00:20:04;32.57;;;7.70;;
17251;SDS011;8742;51.716;8.790;2023-02-01T00:22:32;34.03;;;8.80;;
17251;SDS011;8742;51.716;8.790;2023-02-01T00:24:59;17.07;;;5.53;;
17251;SDS011;8742;51.716;8.790;2023-02-01T00:27:27;19.53;;;5.60;;
17251;SDS011;8742;51.716;8.790;2023-02-01T00:29:54;31.87;;;6.50;;
17251;SDS011;8742;51.716;8.790;2023-02-01T00:32:21;20.47;;;6.40;;
17251;SDS011;8742;51.716;8.790;2023-02-01T00:34:47;18.37;;;5.10;;
17251;SDS011;8742;51.716;8.790;2023-02-01T00:37:14;29.67;;;5.97;;
17251;SDS011;8742;51.716;8.790;2023-02-01T00:39:41;20.97;;;5.37;;
17251;SDS011;8742;51.716;8.790;2023-02-01T00:42:08;19.10;;;4.53;;
17251;SDS011;8742;51.716;8.790;2023-02-01T00:44:36;26.47;;;6.47;;
17251;SDS011;8742;51.716;8.790;2023-02-01T00:47:03;29.07;;;6.17;;
17251;SDS011;8742;51.716;8.790;2023-02-01T00:49:30;20.50;;;5.70;;
17251;SDS011;8742;51.716;8.790;2023-02-01T00:51:56;20.37;;;5.73;;
17251;SDS011;8742;51.716;8.790;2023-02-01T00:54:23;21.30;;;5.37;;
17251;SDS011;8742;51.716;8.790;2023-02-01T00:56:50;17.03;;;5.07;;
17251;SDS011;8742;51.716;8.790;2023-02-01T00:59:17;28.03;;;6.00;;
17251;SDS011;8742;51.716;8.790;2023-02-01T01:01:45;17.87;;;5.33;;
17251;SDS011;8742;51.716;8.790;2023-02-01T01:04:12;20.10;;;5.53;;
17251;SDS011;8742;51.716;8.790;2023-02-01T01:06:39;27.70;;;6.10;;
17251;SDS011;8742;51.716;8.790;2023-02-01T01:09:06;25.93;;;6.27;;
17251;SDS011;8742;51.716;8.790;2023-02-01T01:11:34;21.67;;;5.60;;
17251;SDS011;8742;51.716;8.790;2023-02-01T01:14:03;22.37;;;6.23;;
17251;SDS011;8742;51.716;8.790;2023-02-01T01:16:32;24.17;;;6.13;;
17251;SDS011;8742;51.716;8.790;2023-02-01T01:19:00;27.13;;;5.97;;
17251;SDS011;8742;51.716;8.790;2023-02-01T01:21:28;21.47;;;6.30;;
17251;SDS011;8742;51.716;8.790;2023-02-01T01:23:55;19.03;;;6.03;;
17251;SDS011;8742;51.716;8.790;2023-02-01T01:26:23;20.37;;;6.63;;
17251;SDS011;8742;51.716;8.790;2023-02-01T01:28:51;22.73;;;6.20;;
17251;SDS011;8742;51.716;8.790;2023-02-01T01:31:19;30.43;;;7.00;;
17251;SDS011;8742;51.716;8.790;2023-02-01T01:33:50;21.67;;;6.43;;
17251;SDS011;8742;51.716;8.790;2023-02-01T01:36:19;27.20;;;7.80;;
17251;SDS011;8742;51.716;8.790;2023-02-01T01:38:47;24.27;;;7.00;;
17251;SDS011;8742;51.716;8.790;2023-02-01T01:41:15;31.40;;;7.67;;
17251;SDS011;8742;51.716;8.790;2023-02-01T01:43:48;25.63;;;8.00;;
17251;SDS011;8742;51.716;8.790;2023-02-01T01:46:17;31.83;;;7.37;;
17251;SDS011;8742;51.716;8.790;2023-02-01T01:48:45;29.33;;;7.70;;
17251;SDS011;8742;51.716;8.790;2023-02-01T01:51:14;29.20;;;8.40;;
17251;SDS011;8742;51.716;8.790;2023-02-01T01:53:49;24.77;;;8.37;;
17251;SDS011;8742;51.716;8.790;2023-02-01T01:56:23;27.57;;;8.77;;
17251;SDS011;8742;51.716;8.790;2023-02-01T01:58:52;27.60;;;9.10;;
17251;SDS011;8742;51.716;8.790;2023-02-01T02:01:20;31.40;;;9.07;;
17251;SDS011;8742;51.716;8.790;2023-02-01T02:03:47;32.83;;;8.90;;
17251;SDS011;8742;51.716;8.790;2023-02-01T02:06:16;32.60;;;9.17;;
17251;SDS011;8742;51.716;8.790;2023-02-01T02:08:51;30.63;;;9.43;;
17251;SDS011;8742;51.716;8.790;2023-02-01T02:11:17;33.30;;;9.43;;
17251;SDS011;8742;51.716;8.790;2023-02-01T02:13:45;26.03;;;8.30;;
17251;SDS011;8742;51.716;8.790;2023-02-01T02:16:31;29.37;;;8.53;;
17251;SDS011;8742;51.716;8.790;2023-02-01T02:19:32;27.83;;;8.60;;
17251;SDS011;8742;51.716;8.790;2023-02-01T02:22:35;23.60;;;8.30;;
17251;SDS011;8742;51.716;8.790;2023-02-01T02:25:35;28.00;;;8.10;;
17251;SDS011;8742;51.716;8.790;2023-02-01T02:28:30;23.87;;;8.10;;
17251;SDS011;8742;51.716;8.790;2023-02-01T02:31:15;20.50;;;7.07;;
17251;SDS011;8742;51.716;8.790;2023-02-01T02:34:07;28.83;;;7.17;;
17251;SDS011;8742;51.716;8.790;2023-02-01T02:36:43;27.67;;;9.43;;
17251;SDS011;8742;51.716;8.790;2023-02-01T02:39:21;19.73;;;7.40;;
17251;SDS011;8742;51.716;8.790;2023-02-01T02:41:56;25.03;;;7.53;;
17251;SDS011;8742;51.716;8.790;2023-02-01T02:44:46;23.43;;;6.93;;
17251;SDS011;8742;51.716;8.790;2023-02-01T02:47:36;24.43;;;6.07;;
17251;SDS011;8742;51.716;8.790;2023-02-01T02:50:14;17.47;;;5.40;;
17251;SDS011;8742;51.716;8.790;2023-02-01T02:53:03;14.33;;;5.07;;
17251;SDS011;8742;51.716;8.790;2023-02-01T02:55:54;22.33;;;5.90;;
17251;SDS011;8742;51.716;8.790;2023-02-01T02:58:41;20.77;;;5.33;;
17251;SDS011;8742;51.716;8.790;2023-02-01T03:01:26;23.33;;;6.10;;
17251;SDS011;8742;51.716;8.790;2023-02-01T03:04:11;17.10;;;5.17;;
17251;SDS011;8742;51.716;8.790;2023-02-01T03:06:43;19.93;;;4.73;;
17251;SDS011;8742;51.716;8.790;2023-02-01T03:09:13;17.87;;;4.00;;
17251;SDS011;8742;51.716;8.790;2023-02-01T03:11:45;17.13;;;4.70;;
17251;SDS011;8742;51.716;8.790;2023-02-01T03:14:32;17.63;;;4.80;;
17251;SDS011;8742;51.716;8.790;2023-02-01T03:17:03;32.57;;;4.90;;
17251;SDS011;8742;51.716;8.790;2023-02-01T03:19:33;19.57;;;4.27;;
17251;SDS011;8742;51.716;8.790;2023-02-01T03:22:05;16.93;;;3.60;;
17251;SDS011;8742;51.716;8.790;2023-02-01T03:24:36;12.43;;;3.57;;
17251;SDS011;8742;51.716;8.790;2023-02-01T03:27:05;15.30;;;3.87;;
17251;SDS011;8742;51.716;8.790;2023-02-01T03:29:38;20.20;;;4.60;;
17251;SDS011;8742;51.716;8.790;2023-02-01T03:32:10;12.87;;;3.60;;
17251;SDS011;8742;51.716;8.790;2023-02-01T03:34:38;16.57;;;4.20;;
17251;SDS011;8742;51.716;8.790;2023-02-01T03:37:08;17.50;;;4.10;;
17251;SDS011;8742;51.716;8.790;2023-02-01T03:39:38;16.13;;;3.97;;
17251;SDS011;8742;51.716;8.790;2023-02-01T03:42:12;17.17;;;3.60;;
17251;SDS011;8742;51.716;8.790;2023-02-01T03:44:43;10.93;;;4.00;;
17251;SDS011;8742;51.716;8.790;2023-02-01T03:47:16;15.73;;;3.50;;
17251;SDS011;8742;51.716;8.790;2023-02-01T03:49:47;14.80;;;4.10;;
17251;SDS011;8742;51.716;8.790;2023-02-01T03:52:20;24.53;;;4.00;;
17251;SDS011;8742;51.716;8.790;2023-02-01T03:54:49;28.90;;;5.00;;
17251;SDS011;8742;51.716;8.790;2023-02-01T03:57:18;16.57;;;4.30;;
17251;SDS011;8742;51.716;8.790;2023-02-01T03:59:51;17.33;;;4.30;;
17251;SDS011;8742;51.716;8.790;2023-02-01T04:02:18;23.60;;;4.17;;
17251;SDS011;8742;51.716;8.790;2023-02-01T04:04:45;14.90;;;4.07;;
17251;SDS011;8742;51.716;8.790;2023-02-01T04:07:12;13.87;;;3.87;;
17251;SDS011;8742;51.716;8.790;2023-02-01T04:09:40;14.63;;;4.37;;
17251;SDS011;8742;51.716;8.790;2023-02-01T04:12:07;9.73;;;2.93;;
17251;SDS011;8742;51.716;8.790;2023-02-01T04:14:33;18.17;;;4.00;;
17251;SDS011;8742;51.716;8.790;2023-02-01T04:17:00;27.60;;;4.20;;
17251;SDS011;8742;51.716;8.790;2023-02-01T04:19:28;19.50;;;4.10;;
17251;SDS011;8742;51.716;8.790;2023-02-01T04:21:54;15.93;;;3.67;;
17251;SDS011;8742;51.716;8.790;2023-02-01T04:24:21;24.20;;;4.70;;
17251;SDS011;8742;51.716;8.790;2023-02-01T04:26:49;24.70;;;5.07;;
17251;SDS011;8742;51.716;8.790;2023-02-01T04:29:16;24.43;;;4.73;;
17251;SDS011;8742;51.716;8.790;2023-02-01T04:31:43;9.93;;;2.87;;
17251;SDS011;8742;51.716;8.790;2023-02-01T04:34:11;18.77;;;4.20;;
17251;SDS011;8742;51.716;8.790;2023-02-01T04:36:38;15.97;;;4.07;;
17251;SDS011;8742;51.716;8.790;2023-02-01T04:39:04;20.97;;;4.20;;
17251;SDS011;8742;51.716;8.790;2023-02-01T04:41:31;23.27;;;5.13;;
17251;SDS011;8742;51.716;8.790;2023-02-01T04:43:59;17.73;;;4.17;;
17251;SDS011;8742;51.716;8.790;2023-02-01T04:46:26;21.53;;;4.60;;
17251;SDS011;8742;51.716;8.790;2023-02-01T04:48:53;15.37;;;4.00;;
17251;SDS011;8742;51.716;8.790;2023-02-01T04:51:20;17.87;;;4.17;;
17251;SDS011;8742;51.716;8.790;2023-02-01T04:53:47;19.80;;;4.47;;
17251;SDS011;8742;51.716;8.790;2023-02-01T04:56:13;25.17;;;4.70;;
17251;SDS011;8742;51.716;8.790;2023-02-01T04:58:40;23.33;;;4.90;;
17251;SDS011;8742;51.716;8.790;2023-02-01T05:01:08;19.93;;;4.63;;
17251;SDS011;8742;51.716;8.790;2023-02-01T05:03:35;18.87;;;4.50;;
17251;SDS011;8742;51.716;8.790;2023-02-01T05:06:02;17.13;;;4.13;;
17251;SDS011;8742;51.716;8.790;2023-02-01T05:08:30;23.43;;;4.40;;
17251;SDS011;8742;51.716;8.790;2023-02-01T05:10:57;21.47;;;4.40;;
17251;SDS011;8742;51.716;8.790;2023-02-01T05:13:27;23.37;;;4.37;;
17251;SDS011;8742;51.716;8.790;2023-02-01T05:16:13;18.20;;;4.10;;
17251;SDS011;8742;51.716;8.790;2023-02-01T05:18:41;18.63;;;4.13;;
17251;SDS011;8742;51.716;8.790;2023-02-01T05:21:08;22.13;;;4.70;;
17251;SDS011;8742;51.716;8.790;2023-02-01T05:23:35;22.20;;;4.03;;
17251;SDS011;8742;51.716;8.790;2023-02-01T05:26:22;16.83;;;3.77;;
17251;SDS011;8742;51.716;8.790;2023-02-01T05:28:49;26.10;;;5.10;;
17251;SDS011;8742;51.716;8.790;2023-02-01T05:31:18;25.00;;;4.37;;
17251;SDS011;8742;51.716;8.790;2023-02-01T05:33:45;14.00;;;4.23;;
17251;SDS011;8742;51.716;8.790;2023-02-01T05:36:11;28.47;;;4.47;;
17251;SDS011;8742;51.716;8.790;2023-02-01T05:38:38;24.87;;;4.27;;
17251;SDS011;8742;51.716;8.790;2023-02-01T05:41:05;12.30;;;3.57;;
17251;SDS011;8742;51.716;8.790;2023-02-01T05:43:32;22.43;;;4.80;;
17251;SDS011;8742;51.716;8.790;2023-02-01T05:45:59;20.70;;;4.27;;
17251;SDS011;8742;51.716;8.790;2023-02-01T05:48:27;23.10;;;4.70;;
17251;SDS011;8742;51.716;8.790;2023-02-01T05:50:54;19.87;;;4.20;;
17251;SDS011;8742;51.716;8.790;2023-02-01T05:53:21;17.43;;;3.40;;
17251;SDS011;8742;51.716;8.790;2023-02-01T05:55:47;20.30;;;4.60;;
17251;SDS011;8742;51.716;8.790;2023-02-01T05:58:14;22.97;;;3.60;;
17251;SDS011;8742;51.716;8.790;2023-02-01T06:00:41;19.90;;;4.17;;
17251;SDS011;8742;51.716;8.790;2023-02-01T06:03:08;9.43;;;3.00;;
17251;SDS011;8742;51.716;8.790;2023-02-01T06:05:36;17.87;;;3.93;;
17251;SDS011;8742;51.716;8.790;2023-02-01T06:08:03;19.70;;;5.07;;
17251;SDS011;8742;51.716;8.790;2023-02-01T06:10:32;12.93;;;3.10;;
17251;SDS011;8742;51.716;8.790;2023-02-01T06:12:59;27.17;;;4.57;;
17251;SDS011;8742;51.716;8.790;2023-02-01T06:15:26;13.43;;;3.93;;
17251;SDS011;8742;51.716;8.790;2023-02-01T06:17:53;11.93;;;3.53;;
17251;SDS011;8742;51.716;8.790;2023-02-01T06:20:20;28.60;;;4.90;;
17251;SDS011;8742;51.716;8.790;2023-02-01T06:22:48;18.40;;;4.43;;
17251;SDS011;8742;51.716;8.790;2023-02-01T06:25:15;22.47;;;4.33;;
17251;SDS011;8742;51.716;8.790;2023-02-01T06:27:42;20.83;;;4.27;;
17251;SDS011;8742;51.716;8.790;2023-02-01T06:30:10;21.87;;;4.90;;
17251;SDS011;8742;51.716;8.790;2023-02-01T06:32:38;15.10;;;4.70;;
17251;SDS011;8742;51.716;8.790;2023-02-01T06:35:05;18.87;;;4.20;;
17251;SDS011;8742;51.716;8.790;2023-02-01T06:37:36;24.60;;;5.40;;
17251;SDS011;8742;51.716;8.790;2023-02-01T06:40:05;16.27;;;3.43;;
17251;SDS011;8742;51.716;8.790;2023-02-01T06:42:32;19.50;;;3.93;;
17251;SDS011;8742;51.716;8.790;2023-02-01T06:44:59;11.70;;;3.83;;
17251;SDS011;8742;51.716;8.790;2023-02-01T06:47:26;15.83;;;3.83;;
17251;SDS011;8742;51.716;8.790;2023-02-01T06:49:53;23.53;;;4.20;;
17251;SDS011;8742;51.716;8.790;2023-02-01T06:52:20;13.73;;;2.87;;
17251;SDS011;8742;51.716;8.790;2023-02-01T06:54:46;22.13;;;4.33;;
17251;SDS011;8742;51.716;8.790;2023-02-01T06:57:15;12.67;;;3.77;;
17251;SDS011;8742;51.716;8.790;2023-02-01T06:59:42;20.20;;;4.00;;
17251;SDS011;8742;51.716;8.790;2023-02-01T07:02:09;21.80;;;3.87;;
17251;SDS011;8742;51.716;8.790;2023-02-01T07:04:36;14.87;;;3.40;;
17251;SDS011;8742;51.716;8.790;2023-02-01T07:07:03;16.13;;;3.63;;
17251;SDS011;8742;51.716;8.790;2023-02-01T07:09:30;21.83;;;4.50;;
17251;SDS011;8742;51.716;8.790;2023-02-01T07:11:57;18.17;;;3.97;;
17251;SDS011;8742;51.716;8.790;2023-02-01T07:14:25;20.83;;;3.87;;
17251;SDS011;8742;51.716;8.790;2023-02-01T07:16:52;18.77;;;3.47;;
17251;SDS011;8742;51.716;8.790;2023-02-01T07:19:18;20.80;;;3.83;;
17251;SDS011;8742;51.716;8.790;2023-02-01T07:21:45;21.27;;;3.77;;
17251;SDS011;8742;51.716;8.790;2023-02-01T07:24:12;14.97;;;3.90;;
17251;SDS011;8742;51.716;8.790;2023-02-01T07:26:39;15.67;;;4.30;;
17251;SDS011;8742;51.716;8.790;2023-02-01T07:29:06;19.80;;;3.93;;
17251;SDS011;8742;51.716;8.790;2023-02-01T07:31:34;16.17;;;4.03;;
17251;SDS011;8742;51.716;8.790;2023-02-01T07:34:01;18.80;;;3.80;;
17251;SDS011;8742;51.716;8.790;2023-02-01T07:36:28;18.43;;;4.50;;
17251;SDS011;8742;51.716;8.790;2023-02-01T07:38:55;24.67;;;4.03;;
17251;SDS011;8742;51.716;8.790;2023-02-01T07:41:24;14.17;;;4.13;;
17251;SDS011;8742;51.716;8.790;2023-02-01T07:43:52;14.97;;;3.77;;
17251;SDS011;8742;51.716;8.790;2023-02-01T07:46:19;16.70;;;3.80;;
17251;SDS011;8742;51.716;8.790;2023-02-01T07:48:47;15.80;;;2.87;;
17251;SDS011;8742;51.716;8.790;2023-02-01T07:51:15;26.37;;;4.07;;
17251;SDS011;8742;51.716;8.790;2023-02-01T07:53:43;15.73;;;3.30;;
17251;SDS011;8742;51.716;8.790;2023-02-01T07:56:11;23.50;;;3.50;;
17251;SDS011;8742;51.716;8.790;2023-02-01T07:58:39;15.23;;;3.97;;
17251;SDS011;8742;51.716;8.790;2023-02-01T08:01:10;16.53;;;4.60;;
17251;SDS011;8742;51.716;8.790;2023-02-01T08:03:45;13.83;;;4.50;;
17251;SDS011;8742;51.716;8.790;2023-02-01T08:06:14;16.97;;;4.00;;
17251;SDS011;8742;51.716;8.790;2023-02-01T08:08:41;22.07;;;4.20;;
17251;SDS011;8742;51.716;8.790;2023-02-01T08:11:10;18.50;;;3.43;;
17251;SDS011;8742;51.716;8.790;2023-02-01T08:13:37;12.63;;;3.23;;
17251;SDS011;8742;51.716;8.790;2023-02-01T08:16:04;9.80;;;3.13;;
17251;SDS011;8742;51.716;8.790;2023-02-01T08:18:33;15.13;;;3.60;;
17251;SDS011;8742;51.716;8.790;2023-02-01T08:21:03;11.30;;;3.53;;
17251;SDS011;8742;51.716;8.790;2023-02-01T08:23:31;17.20;;;4.10;;
17251;SDS011;8742;51.716;8.790;2023-02-01T08:26:08;17.77;;;4.50;;
17251;SDS011;8742;51.716;8.790;2023-02-01T08:28:36;16.33;;;4.03;;
17251;SDS011;8742;51.716;8.790;2023-02-01T08:31:05;18.90;;;4.80;;
17251;SDS011;8742;51.716;8.790;2023-02-01T08:33:32;24.43;;;3.60;;
17251;SDS011;8742;51.716;8.790;2023-02-01T08:36:01;17.47;;;4.57;;
17251;SDS011;8742;51.716;8.790;2023-02-01T08:38:29;15.13;;;3.77;;
17251;SDS011;8742;51.716;8.790;2023-02-01T08:40:56;28.10;;;4.77;;
17251;SDS011;8742;51.716;8.790;2023-02-01T08:43:23;16.43;;;3.80;;
17251;SDS011;8742;51.716;8.790;2023-02-01T08:45:53;17.00;;;4.17;;
17251;SDS011;8742;51.716;8.790;2023-02-01T08:48:21;12.33;;;4.17;;
17251;SDS011;8742;51.716;8.790;2023-02-01T08:50:47;22.03;;;4.93;;
17251;SDS011;8742;51.716;8.790;2023-02-01T08:53:14;16.10;;;4.30;;
17251;SDS011;8742;51.716;8.790;2023-02-01T08:55:42;13.97;;;3.60;;
17251;SDS011;8742;51.716;8.790;2023-02-01T08:58:11;11.50;;;4.13;;
17251;SDS011;8742;51.716;8.790;2023-02-01T09:00:38;23.37;;;4.07;;
17251;SDS011;8742;51.716;8.790;2023-02-01T09:03:07;24.67;;;5.23;;
17251;SDS011;8742;51.716;8.790;2023-02-01T09:05:35;29.50;;;4.70;;
17251;SDS011;8742;51.716;8.790;2023-02-01T09:08:02;18.17;;;4.73;;
17251;SDS011;8742;51.716;8.790;2023-02-01T09:10:30;15.57;;;4.53;;
17251;SDS011;8742;51.716;8.790;2023-02-01T09:12:58;18.53;;;4.97;;
17251;SDS011;8742;51.716;8.790;2023-02-01T09:15:25;16.83;;;4.17;;
17251;SDS011;8742;51.716;8.790;2023-02-01T09:17:52;19.93;;;4.67;;
17251;SDS011;8742;51.716;8.790;2023-02-01T09:20:18;22.17;;;5.13;;
17251;SDS011;8742;51.716;8.790;2023-02-01T09:22:49;17.47;;;4.17;;
17251;SDS011;8742;51.716;8.790;2023-02-01T09:25:16;17.13;;;4.50;;
17251;SDS011;8742;51.716;8.790;2023-02-01T09:27:43;19.07;;;5.20;;
17251;SDS011;8742;51.716;8.790;2023-02-01T09:30:12;22.13;;;4.60;;
17251;SDS011;8742;51.716;8.790;2023-02-01T09:32:39;21.70;;;3.97;;
17251;SDS011;8742;51.716;8.790;2023-02-01T09:35:06;13.70;;;4.27;;
17251;SDS011;8742;51.716;8.790;2023-02-01T09:37:33;22.47;;;4.63;;
17251;SDS011;8742;51.716;8.790;2023-02-01T09:40:01;19.13;;;4.57;;
17251;SDS011;8742;51.716;8.790;2023-02-01T09:42:41;24.83;;;4.90;;
17251;SDS011;8742;51.716;8.790;2023-02-01T09:45:30;24.63;;;4.90;;
17251;SDS011;8742;51.716;8.790;2023-02-01T09:48:02;20.63;;;4.57;;
17251;SDS011;8742;51.716;8.790;2023-02-01T09:50:37;16.40;;;4.10;;
17251;SDS011;8742;51.716;8.790;2023-02-01T09:53:06;17.53;;;4.50;;
17251;SDS011;8742;51.716;8.790;2023-02-01T09:55:40;15.60;;;4.07;;
17251;SDS011;8742;51.716;8.790;2023-02-01T09:58:12;18.53;;;5.50;;
17251;SDS011;8742;51.716;8.790;2023-02-01T10:00:46;20.07;;;4.17;;
17251;SDS011;8742;51.716;8.790;2023-02-01T10:03:17;16.40;;;4.93;;
17251;SDS011;8742;51.716;8.790;2023-02-01T10:05:54;24.00;;;4.43;;
17251;SDS011;8742;51.716;8.790;2023-02-01T10:08:38;26.27;;;4.90;;
17251;SDS011;8742;51.716;8.790;2023-02-01T10:11:26;16.23;;;4.80;;
17251;SDS011;8742;51.716;8.790;2023-02-01T10:14:15;16.73;;;4.53;;
17251;SDS011;8742;51.716;8.790;2023-02-01T10:16:56;23.97;;;6.03;;
17251;SDS011;8742;51.716;8.790;2023-02-01T10:19:33;18.10;;;5.07;;
17251;SDS011;8742;51.716;8.790;2023-02-01T10:22:14;22.93;;;5.67;;
17251;SDS011;8742;51.716;8.790;2023-02-01T10:24:53;13.47;;;5.23;;
17251;SDS011;8742;51.716;8.790;2023-02-01T10:27:27;15.33;;;4.83;;
17251;SDS011;8742;51.716;8.790;2023-02-01T10:29:57;27.83;;;5.00;;
17251;SDS011;8742;51.716;8.790;2023-02-01T10:32:29;19.87;;;5.20;;
17251;SDS011;8742;51.716;8.790;2023-02-01T10:34:59;22.40;;;4.73;;
17251;SDS011;8742;51.716;8.790;2023-02-01T10:37:29;18.77;;;5.70;;
17251;SDS011;8742;51.716;8.790;2023-02-01T10:39:59;20.50;;;5.50;;
17251;SDS011;8742;51.716;8.790;2023-02-01T10:42:41;16.73;;;5.03;;
17251;SDS011;8742;51.716;8.790;2023-02-01T10:45:11;19.27;;;4.83;;
17251;SDS011;8742;51.716;8.790;2023-02-01T10:47:42;23.60;;;5.10;;
17251;SDS011;8742;51.716;8.790;2023-02-01T10:50:12;17.27;;;5.00;;
17251;SDS011;8742;51.716;8.790;2023-02-01T10:52:46;28.17;;;5.97;;
17251;SDS011;8742;51.716;8.790;2023-02-01T10:55:26;22.37;;;5.20;;
17251;SDS011;8742;51.716;8.790;2023-02-01T10:57:55;22.37;;;5.77;;
17251;SDS011;8742;51.716;8.790;2023-02-01T11:00:23;24.83;;;5.37;;
17251;SDS011;8742;51.716;8.790;2023-02-01T11:02:52;28.90;;;6.60;;
17251;SDS011;8742;51.716;8.790;2023-02-01T11:05:19;13.90;;;4.77;;
17251;SDS011;8742;51.716;8.790;2023-02-01T11:07:48;25.60;;;5.70;;
17251;SDS011;8742;51.716;8.790;2023-02-01T11:13:11;22.43;;;5.37;;
17251;SDS011;8742;51.716;8.790;2023-02-01T11:15:42;20.43;;;5.00;;
17251;SDS011;8742;51.716;8.790;2023-02-01T11:18:16;20.63;;;5.80;;
17251;SDS011;8742;51.716;8.790;2023-02-01T11:20:44;17.37;;;4.93;;
17251;SDS011;8742;51.716;8.790;2023-02-01T11:23:15;20.43;;;7.80;;
17251;SDS011;8742;51.716;8.790;2023-02-01T11:25:49;18.57;;;6.33;;
17251;SDS011;8742;51.716;8.790;2023-02-01T11:28:19;20.70;;;6.20;;
17251;SDS011;8742;51.716;8.790;2023-02-01T11:30:48;22.77;;;6.13;;
17251;SDS011;8742;51.716;8.790;2023-02-01T11:33:19;19.77;;;5.43;;
17251;SDS011;8742;51.716;8.790;2023-02-01T11:35:49;20.17;;;5.97;;
17251;SDS011;8742;51.716;8.790;2023-02-01T11:38:20;10.90;;;5.20;;
17251;SDS011;8742;51.716;8.790;2023-02-01T11:40:48;18.00;;;5.53;;
17251;SDS011;8742;51.716;8.790;2023-02-01T11:43:17;20.27;;;5.37;;
17251;SDS011;8742;51.716;8.790;2023-02-01T11:45:53;14.33;;;5.80;;
17251;SDS011;8742;51.716;8.790;2023-02-01T11:48:23;25.33;;;5.90;;
17251;SDS011;8742;51.716;8.790;2023-02-01T11:50:54;19.03;;;6.27;;
17251;SDS011;8742;51.716;8.790;2023-02-01T11:53:34;22.27;;;5.40;;
17251;SDS011;8742;51.716;8.790;2023-02-01T11:56:12;21.20;;;6.23;;
17251;SDS011;8742;51.716;8.790;2023-02-01T12:01:35;21.33;;;5.90;;
17251;SDS011;8742;51.716;8.790;2023-02-01T12:07:13;15.77;;;5.60;;
17251;SDS011;8742;51.716;8.790;2023-02-01T12:09:49;25.80;;;6.07;;
17251;SDS011;8742;51.716;8.790;2023-02-01T12:12:30;24.43;;;6.43;;
17251;SDS011;8742;51.716;8.790;2023-02-01T12:15:08;21.50;;;6.47;;
17251;SDS011;8742;51.716;8.790;2023-02-01T12:20:57;28.07;;;6.60;;
17251;SDS011;8742;51.716;8.790;2023-02-01T12:23:37;25.97;;;7.27;;
17251;SDS011;8742;51.716;8.790;2023-02-01T12:29:09;20.17;;;6.17;;
17251;SDS011;8742;51.716;8.790;2023-02-01T12:31:58;11.90;;;6.40;;
17251;SDS011;8742;51.716;8.790;2023-02-01T12:34:45;20.73;;;7.00;;
17251;SDS011;8742;51.716;8.790;2023-02-01T12:37:29;18.13;;;6.60;;
17251;SDS011;8742;51.716;8.790;2023-02-01T12:40:13;20.17;;;6.53;;
17251;SDS011;8742;51.716;8.790;2023-02-01T12:42:52;20.87;;;7.30;;
17251;SDS011;8742;51.716;8.790;2023-02-01T12:45:26;29.93;;;7.47;;
17251;SDS011;8742;51.716;8.790;2023-02-01T12:47:59;28.10;;;7.80;;
17251;SDS011;8742;51.716;8.790;2023-02-01T12:50:39;24.90;;;6.63;;
17251;SDS011;8742;51.716;8.790;2023-02-01T12:53:12;26.40;;;7.83;;
17251;SDS011;8742;51.716;8.790;2023-02-01T12:55:47;18.70;;;7.10;;
17251;SDS011;8742;51.716;8.790;2023-02-01T12:58:19;20.43;;;6.90;;
17251;SDS011;8742;51.716;8.790;2023-02-01T13:00:51;20.17;;;6.57;;
17251;SDS011;8742;51.716;8.790;2023-02-01T13:03:27;25.93;;;7.90;;
17251;SDS011;8742;51.716;8.790;2023-02-01T13:06:01;26.73;;;8.07;;
17251;SDS011;8742;51.716;8.790;2023-02-01T13:08:34;18.07;;;7.37;;
17251;SDS011;8742;51.716;8.790;2023-02-01T13:11:09;20.00;;;6.00;;
17251;SDS011;8742;51.716;8.790;2023-02-01T13:13:42;22.20;;;7.17;;
17251;SDS011;8742;51.716;8.790;2023-02-01T13:16:15;16.13;;;5.93;;
17251;SDS011;8742;51.716;8.790;2023-02-01T13:18:47;23.67;;;7.03;;
17251;SDS011;8742;51.716;8.790;2023-02-01T13:21:17;17.90;;;6.93;;
17251;SDS011;8742;51.716;8.790;2023-02-01T13:23:47;22.60;;;7.07;;
17251;SDS011;8742;51.716;8.790;2023-02-01T13:26:17;17.47;;;7.77;;
17251;SDS011;8742;51.716;8.790;2023-02-01T13:28:45;15.90;;;6.70;;
17251;SDS011;8742;51.716;8.790;2023-02-01T13:31:25;28.40;;;8.30;;
17251;SDS011;8742;51.716;8.790;2023-02-01T13:37:13;27.23;;;7.90;;
17251;SDS011;8742;51.716;8.790;2023-02-01T13:39:52;27.70;;;8.93;;
17251;SDS011;8742;51.716;8.790;2023-02-01T13:42:33;19.50;;;7.37;;
17251;SDS011;8742;51.716;8.790;2023-02-01T13:45:14;24.37;;;7.70;;
17251;SDS011;8742;51.716;8.790;2023-02-01T13:47:43;17.93;;;7.60;;
17251;SDS011;8742;51.716;8.790;2023-02-01T13:50:12;22.93;;;8.97;;
17251;SDS011;8742;51.716;8.790;2023-02-01T13:52:51;21.07;;;7.30;;
17251;SDS011;8742;51.716;8.790;2023-02-01T13:55:27;20.53;;;7.97;;
17251;SDS011;8742;51.716;8.790;2023-02-01T13:58:06;22.63;;;7.17;;
17251;SDS011;8742;51.716;8.790;2023-02-01T14:00:41;21.70;;;8.47;;
17251;SDS011;8742;51.716;8.790;2023-02-01T14:03:13;21.63;;;7.73;;
17251;SDS011;8742;51.716;8.790;2023-02-01T14:06:00;30.97;;;8.23;;
17251;SDS011;8742;51.716;8.790;2023-02-01T14:09:12;28.70;;;8.40;;
17251;SDS011;8742;51.716;8.790;2023-02-01T14:11:43;25.00;;;7.80;;
17251;SDS011;8742;51.716;8.790;2023-02-01T14:26:05;25.17;;;6.63;;
17251;SDS011;8742;51.716;8.790;2023-02-01T14:28:51;13.73;;;6.10;;
17251;SDS011;8742;51.716;8.790;2023-02-01T14:34:19;18.93;;;6.60;;
17251;SDS011;8742;51.716;8.790;2023-02-01T14:36:55;26.43;;;6.83;;
17251;SDS011;8742;51.716;8.790;2023-02-01T14:39:26;24.07;;;4.97;;
17251;SDS011;8742;51.716;8.790;2023-02-01T14:42:00;21.90;;;6.50;;
17251;SDS011;8742;51.716;8.790;2023-02-01T14:44:34;21.13;;;5.90;;
17251;SDS011;8742;51.716;8.790;2023-02-01T14:47:07;21.77;;;5.67;;
17251;SDS011;8742;51.716;8.790;2023-02-01T14:49:37;22.30;;;6.13;;
17251;SDS011;8742;51.716;8.790;2023-02-01T14:52:11;21.57;;;5.33;;
17251;SDS011;8742;51.716;8.790;2023-02-01T14:54:42;22.23;;;6.03;;
17251;SDS011;8742;51.716;8.790;2023-02-01T14:57:14;16.27;;;5.03;;
17251;SDS011;8742;51.716;8.790;2023-02-01T14:59:44;25.27;;;5.13;;
17251;SDS011;8742;51.716;8.790;2023-02-01T15:02:18;17.17;;;4.60;;
17251;SDS011;8742;51.716;8.790;2023-02-01T15:04:52;19.93;;;4.43;;
17251;SDS011;8742;51.716;8.790;2023-02-01T15:07:22;20.97;;;4.40;;
17251;SDS011;8742;51.716;8.790;2023-02-01T15:09:51;12.70;;;3.80;;
17251;SDS011;8742;51.716;8.790;2023-02-01T15:12:23;18.33;;;4.30;;
17251;SDS011;8742;51.716;8.790;2023-02-01T15:15:11;16.13;;;4.17;;
17251;SDS011;8742;51.716;8.790;2023-02-01T15:17:41;16.13;;;3.83;;
17251;SDS011;8742;51.716;8.790;2023-02-01T15:20:12;19.00;;;4.10;;
17251;SDS011;8742;51.716;8.790;2023-02-01T15:22:40;19.97;;;4.37;;
17251;SDS011;8742;51.716;8.790;2023-02-01T15:25:18;21.80;;;4.60;;
17251;SDS011;8742;51.716;8.790;2023-02-01T15:27:47;15.43;;;3.00;;
17251;SDS011;8742;51.716;8.790;2023-02-01T15:30:16;5.00;;;1.13;;
17251;SDS011;8742;51.716;8.790;2023-02-01T15:32:47;2.83;;;1.03;;
17251;SDS011;8742;51.716;8.790;2023-02-01T15:35:34;6.03;;;1.43;;
17251;SDS011;8742;51.716;8.790;2023-02-01T15:38:30;6.07;;;1.10;;
17251;SDS011;8742;51.716;8.790;2023-02-01T15:41:02;1.83;;;1.07;;
17251;SDS011;8742;51.716;8.790;2023-02-01T15:43:33;7.47;;;1.47;;
17251;SDS011;8742;51.716;8.790;2023-02-01T15:46:02;8.40;;;1.40;;